createdAt,value
2017-08-31T00:00:00.365Z,99.99
2017-08-31T00:01:00.362Z,99.99
2017-08-31T00:02:00.359Z,99.99
2017-08-31T00:03:00.360Z,99.99
2017-08-31T00:04:00.356Z,99.99
2017-08-31T00:05:00.357Z,99.99
2017-08-31T00:06:00.354Z,99.99
2017-08-31T00:07:00.041Z,99.99
2017-08-31T00:08:00.352Z,99.99
2017-08-31T00:09:00.138Z,99.99
2017-08-31T00:10:00.036Z,99.93
2017-08-31T00:11:00.345Z,99.99
2017-08-31T00:12:00.031Z,99.93
2017-08-31T00:13:00.031Z,99.99
2017-08-31T00:14:00.028Z,99.99
2017-08-31T00:15:00.024Z,99.99
2017-08-31T00:16:00.335Z,99.99
2017-08-31T00:17:00.337Z,99.99
2017-08-31T00:18:00.019Z,99.84
2017-08-31T00:19:00.017Z,99.64
2017-08-31T00:20:00.332Z,99.84
2017-08-31T00:21:00.329Z,99.99
2017-08-31T00:22:00.327Z,99.99
2017-08-31T00:23:00.322Z,99.99
2017-08-31T00:24:00.318Z,99.44
2017-08-31T00:25:00.320Z,99.26
2017-08-31T00:26:00.007Z,99.74
2017-08-31T00:27:00.317Z,99.64
2017-08-31T00:28:00.003Z,99.35
2017-08-31T00:29:00.313Z,99.78
2017-08-31T00:29:59.996Z,99.3
2017-08-31T00:30:59.996Z,99.3
2017-08-31T00:32:00.312Z,99.4
2017-08-31T00:33:00.305Z,99.69
2017-08-31T00:33:59.990Z,99.3
2017-08-31T00:34:59.988Z,99.78
2017-08-31T00:36:00.300Z,99.69
2017-08-31T00:37:00.301Z,99.78
2017-08-31T00:38:00.084Z,99.3
2017-08-31T00:39:00.292Z,99.78
2017-08-31T00:39:59.978Z,99.69
2017-08-31T00:41:00.288Z,99.11
2017-08-31T00:41:59.977Z,99.59
2017-08-31T00:43:00.385Z,99.59
2017-08-31T00:43:59.972Z,99.69
2017-08-31T00:45:00.282Z,99.3
2017-08-31T00:45:59.969Z,99.69
2017-08-31T00:46:59.965Z,99.69
2017-08-31T00:47:59.967Z,99.3
2017-08-31T00:48:59.963Z,99.69
2017-08-31T00:50:00.272Z,99.78
2017-08-31T00:51:00.270Z,99.88
2017-08-31T00:52:00.270Z,99.01
2017-08-31T00:53:00.270Z,99.01
2017-08-31T00:54:00.275Z,99.21
2017-08-31T00:55:00.373Z,98.82
2017-08-31T00:55:59.952Z,99.11
2017-08-31T00:56:59.950Z,99.21
2017-08-31T00:57:59.945Z,99.21
2017-08-31T00:59:00.046Z,99.21
2017-08-31T00:59:59.942Z,99.01
2017-08-31T01:00:59.941Z,99.21
2017-08-31T01:01:59.941Z,99.3
2017-08-31T01:02:59.939Z,99.11
2017-08-31T01:04:00.349Z,98.92
2017-08-31T01:05:00.346Z,99.21
2017-08-31T01:05:59.931Z,99.01
2017-08-31T01:07:00.245Z,99.11
2017-08-31T01:07:59.928Z,99.01
2017-08-31T01:09:00.240Z,99.11
2017-08-31T01:09:59.925Z,99.4
2017-08-31T01:11:00.239Z,99.11
2017-08-31T01:12:00.021Z,99.49
2017-08-31T01:13:00.230Z,99.3
2017-08-31T01:13:59.918Z,99.01
2017-08-31T01:15:00.230Z,99.01
2017-08-31T01:16:00.240Z,99.21
2017-08-31T01:16:59.912Z,99.01
2017-08-31T01:17:59.910Z,99.21
2017-08-31T01:18:59.907Z,99.26
2017-08-31T01:20:00.218Z,99.06
2017-08-31T01:20:59.904Z,99.16
2017-08-31T01:22:00.216Z,99.16
2017-08-31T01:22:59.898Z,98.77
2017-08-31T01:23:59.898Z,98.77
2017-08-31T01:25:00.311Z,98.68
2017-08-31T01:25:59.895Z,99.35
2017-08-31T01:27:00.206Z,99.73
2017-08-31T01:28:00.202Z,99.73
2017-08-31T01:29:00.203Z,99.35
2017-08-31T01:29:59.886Z,99.44
2017-08-31T01:31:00.200Z,99.64
2017-08-31T01:31:59.882Z,99.26
2017-08-31T01:33:00.196Z,99.44
2017-08-31T01:34:00.191Z,99.26
2017-08-31T01:34:59.876Z,99.54
2017-08-31T01:35:59.875Z,99.64
2017-08-31T01:37:00.189Z,99.64
2017-08-31T01:37:59.874Z,99.83
2017-08-31T01:39:00.184Z,99.73
2017-08-31T01:40:00.183Z,99.73
2017-08-31T01:41:00.179Z,99.54
2017-08-31T01:41:59.863Z,99.44
2017-08-31T01:43:00.176Z,99.44
2017-08-31T01:43:59.859Z,99.44
2017-08-31T01:44:59.857Z,99.44
2017-08-31T01:46:00.167Z,99.73
2017-08-31T01:47:00.166Z,99.73
2017-08-31T01:47:59.850Z,99.54
2017-08-31T01:48:59.849Z,99.35
2017-08-31T01:49:59.846Z,99.35
2017-08-31T01:50:59.947Z,98.96
2017-08-31T01:51:59.844Z,98.96
2017-08-31T01:52:59.842Z,99.26
2017-08-31T01:54:00.157Z,99.4
2017-08-31T01:54:59.839Z,99.26
2017-08-31T01:56:00.149Z,99.16
2017-08-31T01:56:59.836Z,99.35
2017-08-31T01:57:59.834Z,99.35
2017-08-31T01:59:00.145Z,99.06
2017-08-31T01:59:59.929Z,99.35
2017-08-31T02:01:00.139Z,98.77
2017-08-31T02:01:59.822Z,98.96
2017-08-31T02:02:59.821Z,99.06
2017-08-31T02:04:00.135Z,99.16
2017-08-31T02:04:59.819Z,99.16
2017-08-31T02:06:00.132Z,99.16
2017-08-31T02:07:00.136Z,98.87
2017-08-31T02:07:59.811Z,98.58
2017-08-31T02:08:59.813Z,98.49
2017-08-31T02:10:00.120Z,98.29
2017-08-31T02:10:59.805Z,99.16
2017-08-31T02:12:00.115Z,99.26
2017-08-31T02:13:00.220Z,99.26
2017-08-31T02:13:59.801Z,99.06
2017-08-31T02:14:59.800Z,99.26
2017-08-31T02:15:59.796Z,99.16
2017-08-31T02:17:00.107Z,99.26
2017-08-31T02:18:00.209Z,99.16
2017-08-31T02:19:00.107Z,99.16
2017-08-31T02:20:00.100Z,99.06
2017-08-31T02:21:00.098Z,98.58
2017-08-31T02:21:59.784Z,98.49
2017-08-31T02:23:00.099Z,98.58
2017-08-31T02:24:00.096Z,98.58
2017-08-31T02:25:00.092Z,98.19
2017-08-31T02:25:59.776Z,98.96
2017-08-31T02:27:00.086Z,98.96
2017-08-31T02:28:00.089Z,99.16
2017-08-31T02:28:59.772Z,99.16
2017-08-31T02:29:59.769Z,99.16
2017-08-31T02:31:00.087Z,99.06
2017-08-31T02:31:59.765Z,99.16
2017-08-31T02:33:00.076Z,99.16
2017-08-31T02:34:00.074Z,99.35
2017-08-31T02:34:59.758Z,98.96
2017-08-31T02:36:00.071Z,98.87
2017-08-31T02:37:00.068Z,98.96
2017-08-31T02:37:59.756Z,99.35
2017-08-31T02:38:59.748Z,99.54
2017-08-31T02:39:59.749Z,99.44
2017-08-31T02:40:59.746Z,99.68
2017-08-31T02:41:59.746Z,99.64
2017-08-31T02:42:59.742Z,99.68
2017-08-31T02:44:00.057Z,99.11
2017-08-31T02:45:00.057Z,98.91
2017-08-31T02:46:00.050Z,99.99
2017-08-31T02:47:00.075Z,99.99
2017-08-31T02:47:59.732Z,99.98
2017-08-31T02:48:59.732Z,99.78
2017-08-31T02:50:00.043Z,99.99
2017-08-31T02:51:00.063Z,99.99
2017-08-31T02:52:00.040Z,99.68
2017-08-31T02:53:00.037Z,99.88
2017-08-31T02:53:59.719Z,99.99
2017-08-31T02:55:00.031Z,99.99
2017-08-31T02:55:59.716Z,99.99
2017-08-31T02:57:00.028Z,99.99
2017-08-31T02:58:00.027Z,99.99
2017-08-31T02:59:00.024Z,99.93
2017-08-31T03:00:00.022Z,99.99
2017-08-31T03:01:00.018Z,99.54
2017-08-31T03:01:59.703Z,99.54
2017-08-31T03:02:59.706Z,99.64
2017-08-31T03:04:00.012Z,99.73
2017-08-31T03:04:59.697Z,99.83
2017-08-31T03:05:59.797Z,99.35
2017-08-31T03:07:00.008Z,99.54
2017-08-31T03:08:00.005Z,99.54
2017-08-31T03:08:59.689Z,99.54
2017-08-31T03:10:00.000Z,99.26
2017-08-31T03:10:59.685Z,99.54
2017-08-31T03:11:59.995Z,99.16
2017-08-31T03:12:59.993Z,99.26
2017-08-31T03:13:59.994Z,99.54
2017-08-31T03:14:59.677Z,99.64
2017-08-31T03:15:59.987Z,99.35
2017-08-31T03:17:00.086Z,99.64
2017-08-31T03:17:59.986Z,99.44
2017-08-31T03:19:00.081Z,99.64
2017-08-31T03:19:59.982Z,99.54
2017-08-31T03:20:59.663Z,99.64
2017-08-31T03:21:59.663Z,99.54
2017-08-31T03:22:59.973Z,99.26
2017-08-31T03:23:59.657Z,99.16
2017-08-31T03:24:59.656Z,99.35
2017-08-31T03:25:59.968Z,99.35
2017-08-31T03:26:59.651Z,99.26
2017-08-31T03:27:59.748Z,99.26
2017-08-31T03:28:59.962Z,99.54
2017-08-31T03:29:59.647Z,99.54
2017-08-31T03:30:59.643Z,99.26
2017-08-31T03:31:59.962Z,99.26
2017-08-31T03:32:59.638Z,99.73
2017-08-31T03:33:59.949Z,99.64
2017-08-31T03:34:59.633Z,99.73
2017-08-31T03:35:59.634Z,99.44
2017-08-31T03:36:59.944Z,99.44
2017-08-31T03:37:59.628Z,99.93
2017-08-31T03:38:59.939Z,99.64
2017-08-31T03:39:59.943Z,99.73
2017-08-31T03:40:59.937Z,99.64
2017-08-31T03:41:59.622Z,99.99
2017-08-31T03:42:59.933Z,99.99
2017-08-31T03:43:59.928Z,99.83
2017-08-31T03:45:00.026Z,99.99
2017-08-31T03:45:59.612Z,99.73
2017-08-31T03:46:59.609Z,99.93
2017-08-31T03:47:59.922Z,99.99
2017-08-31T03:49:00.021Z,99.99
2017-08-31T03:49:59.604Z,99.73
2017-08-31T03:50:59.600Z,99.99
2017-08-31T03:51:59.600Z,99.54
2017-08-31T03:52:59.595Z,99.99
2017-08-31T03:53:59.597Z,99.93
2017-08-31T03:54:59.595Z,99.73
2017-08-31T03:55:59.691Z,99.83
2017-08-31T03:56:59.690Z,99.73
2017-08-31T03:57:59.899Z,99.99
2017-08-31T03:58:59.898Z,99.73
2017-08-31T03:59:59.581Z,99.83
2017-08-31T04:00:59.894Z,99.99
2017-08-31T04:01:59.578Z,99.83
2017-08-31T04:02:59.994Z,99.73
2017-08-31T04:03:59.577Z,99.99
2017-08-31T04:04:59.886Z,99.88
2017-08-31T04:05:59.570Z,99.99
2017-08-31T04:06:59.568Z,99.93
2017-08-31T04:07:59.666Z,99.83
2017-08-31T04:08:59.565Z,99.99
2017-08-31T04:09:59.562Z,99.73
2017-08-31T04:10:59.971Z,99.93
2017-08-31T04:11:59.872Z,99.93
2017-08-31T04:12:59.970Z,99.88
2017-08-31T04:13:59.552Z,99.99
2017-08-31T04:14:59.551Z,99.99
2017-08-31T04:15:59.550Z,99.99
2017-08-31T04:16:59.648Z,99.98
2017-08-31T04:17:59.858Z,99.98
2017-08-31T04:18:59.861Z,99.99
2017-08-31T04:19:59.541Z,99.98
2017-08-31T04:20:59.541Z,99.99
2017-08-31T04:21:59.850Z,99.99
2017-08-31T04:22:59.847Z,99.99
2017-08-31T04:23:59.530Z,99.99
2017-08-31T04:24:59.531Z,99.99
2017-08-31T04:25:59.527Z,99.99
2017-08-31T04:26:59.837Z,99.99
2017-08-31T04:27:59.846Z,99.99
2017-08-31T04:28:59.521Z,99.99
2017-08-31T04:29:59.520Z,99.99
2017-08-31T04:30:59.831Z,99.99
2017-08-31T04:31:59.932Z,99.99
2017-08-31T04:32:59.827Z,99.99
2017-08-31T04:33:59.828Z,99.99
2017-08-31T04:34:59.828Z,99.99
2017-08-31T04:35:59.505Z,99.99
2017-08-31T04:36:59.815Z,99.99
2017-08-31T04:37:59.916Z,99.99
2017-08-31T04:38:59.811Z,99.99
2017-08-31T04:39:59.811Z,99.99
2017-08-31T04:40:59.495Z,99.99
2017-08-31T04:41:59.805Z,99.99
2017-08-31T04:42:59.803Z,99.99
2017-08-31T04:43:59.798Z,99.99
2017-08-31T04:44:59.799Z,99.99
2017-08-31T04:45:59.484Z,99.99
2017-08-31T04:46:59.893Z,99.99
2017-08-31T04:47:59.796Z,99.99
2017-08-31T04:48:59.477Z,99.99
2017-08-31T04:49:59.478Z,99.99
2017-08-31T04:50:59.569Z,99.99
2017-08-31T04:51:59.469Z,99.99
2017-08-31T04:52:59.464Z,99.99
2017-08-31T04:53:59.463Z,99.99
2017-08-31T04:54:59.772Z,99.99
2017-08-31T04:55:59.773Z,99.99
2017-08-31T04:56:59.459Z,99.99
2017-08-31T04:57:59.454Z,99.99
2017-08-31T04:58:59.451Z,99.99
2017-08-31T04:59:59.478Z,99.99
2017-08-31T05:00:59.549Z,99.99
2017-08-31T05:01:59.446Z,99.99
2017-08-31T05:02:59.757Z,99.99
2017-08-31T05:03:59.753Z,99.99
2017-08-31T05:04:59.441Z,99.99
2017-08-31T05:05:59.752Z,99.99
2017-08-31T05:06:59.435Z,99.99
2017-08-31T05:07:59.745Z,99.99
2017-08-31T05:08:59.429Z,99.99
2017-08-31T05:09:59.746Z,99.99
2017-08-31T05:10:59.427Z,99.99
2017-08-31T05:11:59.837Z,99.99
2017-08-31T05:12:59.735Z,99.99
2017-08-31T05:13:59.734Z,99.99
2017-08-31T05:14:59.728Z,99.99
2017-08-31T05:15:59.518Z,99.99
2017-08-31T05:16:59.727Z,99.99
2017-08-31T05:17:59.829Z,99.99
2017-08-31T05:18:59.724Z,99.99
2017-08-31T05:19:59.719Z,99.99
2017-08-31T05:20:59.719Z,99.99
2017-08-31T05:21:59.718Z,99.99
2017-08-31T05:22:59.713Z,99.99
2017-08-31T05:23:59.400Z,99.99
2017-08-31T05:24:59.398Z,99.99
2017-08-31T05:25:59.710Z,99.99
2017-08-31T05:26:59.715Z,99.99
2017-08-31T05:27:59.394Z,99.99
2017-08-31T05:28:59.709Z,99.99
2017-08-31T05:29:59.703Z,99.99
2017-08-31T05:30:59.699Z,99.99
2017-08-31T05:31:59.387Z,99.99
2017-08-31T05:32:59.485Z,99.99
2017-08-31T05:33:59.698Z,99.99
2017-08-31T05:34:59.693Z,99.99
2017-08-31T05:35:59.379Z,99.99
2017-08-31T05:36:59.379Z,99.99
2017-08-31T05:37:59.380Z,99.99
2017-08-31T05:38:59.377Z,99.99
2017-08-31T05:39:59.376Z,99.99
2017-08-31T05:40:59.579Z,99.99
2017-08-31T05:41:59.372Z,99.99
2017-08-31T05:42:59.689Z,99.99
2017-08-31T05:43:59.684Z,99.99
2017-08-31T05:44:59.685Z,99.99
2017-08-31T05:45:59.366Z,99.99
2017-08-31T05:46:59.365Z,99.99
2017-08-31T05:47:59.680Z,99.99
2017-08-31T05:48:59.675Z,99.99
2017-08-31T05:49:59.363Z,99.99
2017-08-31T05:50:59.688Z,99.99
2017-08-31T05:51:59.671Z,99.99
2017-08-31T05:52:59.670Z,99.99
2017-08-31T05:53:59.356Z,99.99
2017-08-31T05:54:59.670Z,99.99
2017-08-31T05:55:59.355Z,99.99
2017-08-31T05:56:59.352Z,99.99
2017-08-31T05:57:59.663Z,99.99
2017-08-31T05:58:59.663Z,99.99
2017-08-31T05:59:59.349Z,99.99
2017-08-31T06:00:59.350Z,99.99
2017-08-31T06:01:59.660Z,99.99
2017-08-31T06:02:59.663Z,99.99
2017-08-31T06:03:59.347Z,99.99
2017-08-31T06:04:59.344Z,99.99
2017-08-31T06:05:59.446Z,99.99
2017-08-31T06:06:59.655Z,99.99
2017-08-31T06:07:59.656Z,99.99
2017-08-31T06:08:59.653Z,99.99
2017-08-31T06:09:59.343Z,99.99
2017-08-31T06:10:59.652Z,99.99
2017-08-31T06:11:59.649Z,99.99
2017-08-31T06:12:59.336Z,99.99
2017-08-31T06:13:59.336Z,99.99
2017-08-31T06:14:59.648Z,99.99
2017-08-31T06:15:59.649Z,99.99
2017-08-31T06:16:59.643Z,99.99
2017-08-31T06:17:59.652Z,99.99
2017-08-31T06:18:59.646Z,99.99
2017-08-31T06:19:59.428Z,99.99
2017-08-31T06:20:59.643Z,99.99
2017-08-31T06:21:59.329Z,99.99
2017-08-31T06:22:59.327Z,99.99
2017-08-31T06:23:59.429Z,99.99
2017-08-31T06:24:59.326Z,99.99
2017-08-31T06:25:59.735Z,99.99
2017-08-31T06:26:59.640Z,99.99
2017-08-31T06:27:59.326Z,99.99
2017-08-31T06:28:59.422Z,99.99
2017-08-31T06:29:59.640Z,99.99
2017-08-31T06:30:59.322Z,99.99
2017-08-31T06:31:59.320Z,99.99
2017-08-31T06:32:59.319Z,99.99
2017-08-31T06:33:59.319Z,99.99
2017-08-31T06:34:59.318Z,99.99
2017-08-31T06:35:59.628Z,99.99
2017-08-31T06:36:59.627Z,99.99
2017-08-31T06:37:59.628Z,99.99
2017-08-31T06:38:59.629Z,99.99
2017-08-31T06:39:59.626Z,99.99
2017-08-31T06:40:59.624Z,99.99
2017-08-31T06:41:59.622Z,99.99
2017-08-31T06:42:59.623Z,99.99
2017-08-31T06:43:59.313Z,99.99
2017-08-31T06:44:59.622Z,99.99
2017-08-31T06:45:59.311Z,99.99
2017-08-31T06:46:59.311Z,99.99
2017-08-31T06:47:59.309Z,99.99
2017-08-31T06:48:59.623Z,99.99
2017-08-31T06:49:59.620Z,99.99
2017-08-31T06:50:59.623Z,99.99
2017-08-31T06:51:59.620Z,99.99
2017-08-31T06:52:59.619Z,99.99
2017-08-31T06:53:59.625Z,99.99
2017-08-31T06:54:59.305Z,99.99
2017-08-31T06:55:59.616Z,99.99
2017-08-31T06:56:59.618Z,99.99
2017-08-31T06:57:59.615Z,99.99
2017-08-31T06:58:59.616Z,99.99
2017-08-31T06:59:59.615Z,99.99
2017-08-31T07:00:59.301Z,99.99
2017-08-31T07:01:59.612Z,99.99
2017-08-31T07:02:59.615Z,99.99
2017-08-31T07:03:59.609Z,99.99
2017-08-31T07:04:59.609Z,99.99
2017-08-31T07:05:59.608Z,99.99
2017-08-31T07:06:59.608Z,99.99
2017-08-31T07:07:59.607Z,99.99
2017-08-31T07:08:59.295Z,99.99
2017-08-31T07:09:59.606Z,99.99
2017-08-31T07:10:59.294Z,99.99
2017-08-31T07:11:59.603Z,99.99
2017-08-31T07:12:59.605Z,99.99
2017-08-31T07:13:59.603Z,99.99
2017-08-31T07:14:59.604Z,99.99
2017-08-31T07:15:59.606Z,99.99
2017-08-31T07:16:59.288Z,99.99
2017-08-31T07:17:59.604Z,99.99
2017-08-31T07:18:59.287Z,99.99
2017-08-31T07:19:59.697Z,99.99
2017-08-31T07:20:59.597Z,99.99
2017-08-31T07:21:59.287Z,99.99
2017-08-31T07:22:59.698Z,99.99
2017-08-31T07:23:59.286Z,99.99
2017-08-31T07:24:59.281Z,99.99
2017-08-31T07:25:59.592Z,99.99
2017-08-31T07:26:59.281Z,99.99
2017-08-31T07:27:59.381Z,99.99
2017-08-31T07:28:59.590Z,99.99
2017-08-31T07:29:59.276Z,99.99
2017-08-31T07:30:59.599Z,99.99
2017-08-31T07:31:59.598Z,99.99
2017-08-31T07:32:59.589Z,99.99
2017-08-31T07:33:59.587Z,99.99
2017-08-31T07:34:59.274Z,99.99
2017-08-31T07:35:59.269Z,99.99
2017-08-31T07:36:59.272Z,99.99
2017-08-31T07:37:59.270Z,99.99
2017-08-31T07:38:59.270Z,99.99
2017-08-31T07:39:59.576Z,99.99
2017-08-31T07:40:59.270Z,99.99
2017-08-31T07:41:59.365Z,99.99
2017-08-31T07:42:59.265Z,99.99
2017-08-31T07:43:59.571Z,99.99
2017-08-31T07:44:59.264Z,99.99
2017-08-31T07:45:59.259Z,99.99
2017-08-31T07:46:59.265Z,99.99
2017-08-31T07:47:59.259Z,99.99
2017-08-31T07:48:59.571Z,99.99
2017-08-31T07:49:59.256Z,99.99
2017-08-31T07:50:59.253Z,99.99
2017-08-31T07:51:59.256Z,99.99
2017-08-31T07:52:59.570Z,99.99
2017-08-31T07:53:59.562Z,99.99
2017-08-31T07:54:59.250Z,99.99
2017-08-31T07:55:59.251Z,99.99
2017-08-31T07:56:59.247Z,99.99
2017-08-31T07:57:59.558Z,99.99
2017-08-31T07:58:59.658Z,99.99
2017-08-31T07:59:59.558Z,99.99
2017-08-31T08:00:59.555Z,99.99
2017-08-31T08:01:59.241Z,99.99
2017-08-31T08:02:59.652Z,99.99
2017-08-31T08:03:59.552Z,99.99
2017-08-31T08:04:59.238Z,99.99
2017-08-31T08:05:59.239Z,99.99
2017-08-31T08:06:59.548Z,99.99
2017-08-31T08:07:59.236Z,99.99
2017-08-31T08:08:59.236Z,99.99
2017-08-31T08:09:59.549Z,99.99
2017-08-31T08:10:59.235Z,99.99
2017-08-31T08:11:59.233Z,99.99
2017-08-31T08:12:59.543Z,99.99
2017-08-31T08:13:59.548Z,99.99
2017-08-31T08:14:59.539Z,99.99
2017-08-31T08:15:59.550Z,99.99
2017-08-31T08:16:59.228Z,99.99
2017-08-31T08:17:59.328Z,99.99
2017-08-31T08:18:59.535Z,99.99
2017-08-31T08:19:59.223Z,99.99
2017-08-31T08:20:59.222Z,99.99
2017-08-31T08:21:59.221Z,99.99
2017-08-31T08:22:59.220Z,99.99
2017-08-31T08:23:59.222Z,99.99
2017-08-31T08:24:59.531Z,99.99
2017-08-31T08:25:59.528Z,99.99
2017-08-31T08:26:59.530Z,99.99
2017-08-31T08:27:59.213Z,99.99
2017-08-31T08:28:59.215Z,99.99
2017-08-31T08:29:59.524Z,99.99
2017-08-31T08:30:59.214Z,99.99
2017-08-31T08:31:59.212Z,99.99
2017-08-31T08:32:59.533Z,99.99
2017-08-31T08:33:59.518Z,99.99
2017-08-31T08:34:59.517Z,99.99
2017-08-31T08:35:59.207Z,99.99
2017-08-31T08:36:59.204Z,99.99
2017-08-31T08:37:59.203Z,99.99
2017-08-31T08:38:59.512Z,99.99
2017-08-31T08:39:59.516Z,99.99
2017-08-31T08:40:59.511Z,99.99
2017-08-31T08:41:59.200Z,99.99
2017-08-31T08:42:59.509Z,99.99
2017-08-31T08:43:59.508Z,99.99
2017-08-31T08:44:59.510Z,99.99
2017-08-31T08:45:59.505Z,99.99
2017-08-31T08:46:59.506Z,99.99
2017-08-31T08:47:59.194Z,99.99
2017-08-31T08:48:59.523Z,99.99
2017-08-31T08:49:59.191Z,99.99
2017-08-31T08:50:59.292Z,99.99
2017-08-31T08:51:59.190Z,99.99
2017-08-31T08:52:59.497Z,99.99
2017-08-31T08:53:59.501Z,99.99
2017-08-31T08:54:59.500Z,99.99
2017-08-31T08:55:59.497Z,99.99
2017-08-31T08:56:59.184Z,99.99
2017-08-31T08:57:59.181Z,99.99
2017-08-31T08:58:59.186Z,99.99
2017-08-31T08:59:59.490Z,99.99
2017-08-31T09:00:59.179Z,99.99
2017-08-31T09:01:59.306Z,99.99
2017-08-31T09:02:59.175Z,99.99
2017-08-31T09:03:59.486Z,99.99
2017-08-31T09:04:59.483Z,99.99
2017-08-31T09:05:59.483Z,99.99
2017-08-31T09:06:59.482Z,99.99
2017-08-31T09:07:59.171Z,99.99
2017-08-31T09:08:59.480Z,99.99
2017-08-31T09:09:59.479Z,99.99
2017-08-31T09:10:59.474Z,99.99
2017-08-31T09:11:59.165Z,99.99
2017-08-31T09:12:59.476Z,99.99
2017-08-31T09:13:59.161Z,99.99
2017-08-31T09:14:59.160Z,99.99
2017-08-31T09:15:59.469Z,99.99
2017-08-31T09:16:59.157Z,99.99
2017-08-31T09:17:59.471Z,99.99
2017-08-31T09:18:59.564Z,99.99
2017-08-31T09:19:59.469Z,99.99
2017-08-31T09:20:59.497Z,99.99
2017-08-31T09:21:59.151Z,99.99
2017-08-31T09:22:59.462Z,99.99
2017-08-31T09:23:59.462Z,99.99
2017-08-31T09:24:59.147Z,99.99
2017-08-31T09:25:59.457Z,99.99
2017-08-31T09:26:59.146Z,99.99
2017-08-31T09:27:59.147Z,99.99
2017-08-31T09:28:59.455Z,99.99
2017-08-31T09:29:59.142Z,99.99
2017-08-31T09:30:59.144Z,99.99
2017-08-31T09:31:59.449Z,99.99
2017-08-31T09:32:59.139Z,99.99
2017-08-31T09:33:59.449Z,99.99
2017-08-31T09:34:59.545Z,99.99
2017-08-31T09:35:59.447Z,99.99
2017-08-31T09:36:59.132Z,99.99
2017-08-31T09:37:59.443Z,99.99
2017-08-31T09:38:59.440Z,99.99
2017-08-31T09:39:59.229Z,99.99
2017-08-31T09:40:59.539Z,99.99
2017-08-31T09:41:59.125Z,99.99
2017-08-31T09:42:59.439Z,99.99
2017-08-31T09:43:59.224Z,99.99
2017-08-31T09:44:59.435Z,99.99
2017-08-31T09:45:59.433Z,99.99
2017-08-31T09:46:59.535Z,99.99
2017-08-31T09:47:59.429Z,99.99
2017-08-31T09:48:59.434Z,99.99
2017-08-31T09:49:59.116Z,99.99
2017-08-31T09:50:59.426Z,99.99
2017-08-31T09:51:59.424Z,99.99
2017-08-31T09:52:59.426Z,99.99
2017-08-31T09:53:59.114Z,99.99
2017-08-31T09:54:59.419Z,99.99
2017-08-31T09:55:59.109Z,99.99
2017-08-31T09:56:59.109Z,99.99
2017-08-31T09:57:59.418Z,99.99
2017-08-31T09:58:59.105Z,99.99
2017-08-31T09:59:59.417Z,99.99
2017-08-31T10:00:59.105Z,99.99
2017-08-31T10:01:59.101Z,99.99
2017-08-31T10:02:59.101Z,99.99
2017-08-31T10:03:59.099Z,99.99
2017-08-31T10:04:59.411Z,99.99
2017-08-31T10:05:59.094Z,99.99
2017-08-31T10:06:59.406Z,99.99
2017-08-31T10:07:59.406Z,99.99
2017-08-31T10:08:59.195Z,99.99
2017-08-31T10:09:59.092Z,99.99
2017-08-31T10:10:59.404Z,99.99
2017-08-31T10:11:59.092Z,99.99
2017-08-31T10:12:59.397Z,99.99
2017-08-31T10:13:59.397Z,99.99
2017-08-31T10:14:59.395Z,99.99
2017-08-31T10:15:59.397Z,99.99
2017-08-31T10:16:59.394Z,99.99
2017-08-31T10:17:59.084Z,99.99
2017-08-31T10:18:59.397Z,99.99
2017-08-31T10:19:59.391Z,99.99
2017-08-31T10:20:59.392Z,99.99
2017-08-31T10:21:59.078Z,99.99
2017-08-31T10:22:59.079Z,99.99
2017-08-31T10:23:59.490Z,99.99
2017-08-31T10:24:59.387Z,99.99
2017-08-31T10:25:59.386Z,99.99
2017-08-31T10:26:59.386Z,99.99
2017-08-31T10:27:59.389Z,99.99
2017-08-31T10:28:59.073Z,99.99
2017-08-31T10:29:59.381Z,99.99
2017-08-31T10:30:59.380Z,99.99
2017-08-31T10:31:59.382Z,99.99
2017-08-31T10:32:59.375Z,99.99
2017-08-31T10:33:59.375Z,99.99
2017-08-31T10:34:59.165Z,99.99
2017-08-31T10:35:59.063Z,99.99
2017-08-31T10:36:59.377Z,99.99
2017-08-31T10:37:59.060Z,99.99
2017-08-31T10:38:59.061Z,99.99
2017-08-31T10:39:59.059Z,99.99
2017-08-31T10:40:59.369Z,99.99
2017-08-31T10:41:59.367Z,99.99
2017-08-31T10:42:59.371Z,99.99
2017-08-31T10:43:59.371Z,99.99
2017-08-31T10:44:59.362Z,99.99
2017-08-31T10:45:59.361Z,99.99
2017-08-31T10:46:59.051Z,99.99
2017-08-31T10:47:59.362Z,99.99
2017-08-31T10:48:59.050Z,99.99
2017-08-31T10:49:59.458Z,99.99
2017-08-31T10:50:59.047Z,99.99
2017-08-31T10:51:59.045Z,99.99
2017-08-31T10:52:59.352Z,99.99
2017-08-31T10:53:59.350Z,99.99
2017-08-31T10:54:59.350Z,99.99
2017-08-31T10:55:59.350Z,99.99
2017-08-31T10:56:59.039Z,99.99
2017-08-31T10:57:59.347Z,99.99
2017-08-31T10:58:59.038Z,99.99
2017-08-31T10:59:59.034Z,99.99
2017-08-31T11:00:59.345Z,99.99
2017-08-31T11:01:59.343Z,99.99
2017-08-31T11:02:59.030Z,99.99
2017-08-31T11:03:59.027Z,99.99
2017-08-31T11:04:59.339Z,99.99
2017-08-31T11:05:59.339Z,99.99
2017-08-31T11:06:59.336Z,99.99
2017-08-31T11:07:59.337Z,99.99
2017-08-31T11:08:59.334Z,99.99
2017-08-31T11:09:59.022Z,99.99
2017-08-31T11:10:59.020Z,99.99
2017-08-31T11:11:59.331Z,99.99
2017-08-31T11:12:59.018Z,99.99
2017-08-31T11:13:59.328Z,99.99
2017-08-31T11:14:59.014Z,99.99
2017-08-31T11:15:59.327Z,99.99
2017-08-31T11:16:59.326Z,99.99
2017-08-31T11:17:59.323Z,99.99
2017-08-31T11:18:59.320Z,99.99
2017-08-31T11:19:59.317Z,99.99
2017-08-31T11:20:59.318Z,99.99
2017-08-31T11:21:59.006Z,99.99
2017-08-31T11:22:59.318Z,99.99
2017-08-31T11:23:59.316Z,99.99
2017-08-31T11:24:59.004Z,99.99
2017-08-31T11:25:59.309Z,99.99
2017-08-31T11:26:59.001Z,99.99
2017-08-31T11:27:59.630Z,99.99
2017-08-31T11:28:59.453Z,99.99
2017-08-31T11:29:59.484Z,99.99
2017-08-31T11:30:59.487Z,99.99
2017-08-31T11:31:59.415Z,99.99
2017-08-31T11:32:59.524Z,99.99
2017-08-31T11:33:59.372Z,99.99
2017-08-31T11:34:59.398Z,99.99
2017-08-31T11:35:59.089Z,99.99
2017-08-31T11:36:59.065Z,99.99
2017-08-31T11:37:58.984Z,99.99
2017-08-31T11:38:58.984Z,99.99
2017-08-31T11:39:58.984Z,99.99
2017-08-31T11:40:58.978Z,99.99
2017-08-31T11:41:59.394Z,99.99
2017-08-31T11:42:59.291Z,99.99
2017-08-31T11:43:58.976Z,99.99
2017-08-31T11:44:58.973Z,99.99
2017-08-31T11:45:58.972Z,99.99
2017-08-31T11:46:58.974Z,99.99
2017-08-31T11:47:59.283Z,99.99
2017-08-31T11:48:59.279Z,99.99
2017-08-31T11:49:58.966Z,99.99
2017-08-31T11:50:58.967Z,99.99
2017-08-31T11:51:59.277Z,99.99
2017-08-31T11:52:58.961Z,99.99
2017-08-31T11:53:59.274Z,99.99
2017-08-31T11:54:58.961Z,99.99
2017-08-31T11:55:59.268Z,99.99
2017-08-31T11:56:58.957Z,99.99
2017-08-31T11:57:58.958Z,99.99
2017-08-31T11:58:58.954Z,99.99
2017-08-31T11:59:58.957Z,99.99
2017-08-31T12:00:58.954Z,99.99
2017-08-31T12:01:59.260Z,99.99
2017-08-31T12:02:59.263Z,99.99
2017-08-31T12:03:58.947Z,99.99
2017-08-31T12:04:59.256Z,99.99
2017-08-31T12:05:58.946Z,99.99
2017-08-31T12:06:59.259Z,99.99
2017-08-31T12:07:58.945Z,99.99
2017-08-31T12:08:59.258Z,99.99
2017-08-31T12:09:59.255Z,99.99
2017-08-31T12:10:59.347Z,99.99
2017-08-31T12:11:59.249Z,99.99
2017-08-31T12:12:59.247Z,99.99
2017-08-31T12:13:59.341Z,99.99
2017-08-31T12:14:58.951Z,99.99
2017-08-31T12:15:58.929Z,99.99
2017-08-31T12:16:58.927Z,99.99
2017-08-31T12:17:59.241Z,99.99
2017-08-31T12:18:58.925Z,99.99
2017-08-31T12:19:58.922Z,99.99
2017-08-31T12:20:58.920Z,99.99
2017-08-31T12:21:58.921Z,99.99
2017-08-31T12:22:59.233Z,99.99
2017-08-31T12:23:58.916Z,99.99
2017-08-31T12:24:58.919Z,99.99
2017-08-31T12:25:58.915Z,99.99
2017-08-31T12:26:58.914Z,99.99
2017-08-31T12:27:58.910Z,99.99
2017-08-31T12:28:58.910Z,99.99
2017-08-31T12:29:58.910Z,99.99
2017-08-31T12:30:58.907Z,99.99
2017-08-31T12:31:58.907Z,99.99
2017-08-31T12:32:58.903Z,99.99
2017-08-31T12:33:58.904Z,99.99
2017-08-31T12:34:59.212Z,99.99
2017-08-31T12:35:58.898Z,99.99
2017-08-31T12:36:58.900Z,99.99
2017-08-31T12:37:59.210Z,99.99
2017-08-31T12:38:58.892Z,99.99
2017-08-31T12:39:58.894Z,99.99
2017-08-31T12:40:59.202Z,99.99
2017-08-31T12:41:58.889Z,99.99
2017-08-31T12:42:59.201Z,99.99
2017-08-31T12:43:58.889Z,99.99
2017-08-31T12:44:58.887Z,99.99
2017-08-31T12:45:58.886Z,99.99
2017-08-31T12:46:58.885Z,99.99
2017-08-31T12:47:59.194Z,99.99
2017-08-31T12:48:58.881Z,99.99
2017-08-31T12:49:59.288Z,99.99
2017-08-31T12:50:58.876Z,99.99
2017-08-31T12:51:59.191Z,99.99
2017-08-31T12:52:59.207Z,99.99